Time;durP1;ratioP1;P1;durP2;ratioP2;P2;SDS_P1;SDS_P2;PMS_P1;PMS_P2;Temp;Humidity;BMP_temperature;BMP_pressure;BME280_temperature;BME280_humidity;BME280_pressure;Samples;Min_cycle;Max_cycle;Signal;HPM_P1;HPM_P2
2021/05/06 00:11:39;;;;;;;1.35;0.82;;;5.90;99.90;;;;;;5036443;28;20112;-77
2021/05/06 00:31:04;;;;;;;1.50;1.10;;;5.70;99.90;;;;;;5036121;28;20192;-76
2021/05/06 00:33:32;;;;;;;1.88;1.17;;;5.70;99.90;;;;;;5034771;28;20045;-76
2021/05/06 00:35:58;;;;;;;1.73;1.10;;;5.60;99.90;;;;;;5034864;28;20144;-76
2021/05/06 00:38:35;;;;;;;2.40;1.25;;;5.60;99.90;;;;;;5051537;28;20055;-78
2021/05/06 00:54:58;;;;;;;3.00;1.60;;;5.60;99.90;;;;;;5051420;28;20041;-76
2021/05/06 00:57:39;;;;;;;2.20;1.05;;;5.60;99.90;;;;;;5051336;28;20472;-76
2021/05/06 01:05:35;;;;;;;1.40;1.00;;;5.50;99.90;;;;;;5050634;28;20128;-77
2021/05/06 01:08:11;;;;;;;2.67;1.30;;;5.50;99.90;;;;;;5050724;28;20080;-77
2021/05/06 01:13:26;;;;;;;2.67;1.10;;;5.50;99.90;;;;;;5050308;28;20451;-77
2021/05/06 01:15:58;;;;;;;3.53;1.30;;;5.60;99.90;;;;;;5033846;28;20103;-77
2021/05/06 01:18:29;;;;;;;3.35;1.30;;;5.60;99.90;;;;;;5050584;28;20046;-77
2021/05/06 01:20:59;;;;;;;2.30;1.30;;;5.60;99.90;;;;;;5033737;28;20508;-76
2021/05/06 01:23:27;;;;;;;4.43;1.42;;;5.70;99.90;;;;;;5050425;28;20033;-76
2021/05/06 01:28:37;;;;;;;2.15;1.23;;;5.60;99.90;;;;;;5049746;28;20077;-76
2021/05/06 01:31:16;;;;;;;3.72;1.65;;;5.60;99.90;;;;;;5050143;28;20045;-77
2021/05/06 01:33:49;;;;;;;4.70;1.40;;;5.70;99.90;;;;;;5049931;28;20037;-77
2021/05/06 01:36:23;;;;;;;2.80;1.05;;;5.70;99.90;;;;;;5033587;28;20041;-77
2021/05/06 01:50:28;;;;;;;3.13;1.20;;;5.80;99.90;;;;;;5005618;28;20049;-77
2021/05/06 01:58:08;;;;;;;3.42;1.80;;;5.80;99.90;;;;;;5049525;28;20060;-77
2021/05/06 02:00:43;;;;;;;1.98;1.30;;;5.80;99.90;;;;;;5033069;28;20052;-77
2021/05/06 02:03:19;;;;;;;5.25;1.30;;;5.80;99.90;;;;;;5047906;28;20052;-77
2021/05/06 02:05:50;;;;;;;3.90;1.40;;;5.90;99.90;;;;;;5032674;28;20065;-77
2021/05/06 02:08:22;;;;;;;2.83;1.30;;;5.90;99.90;;;;;;5049152;28;20064;-76
2021/05/06 02:10:56;;;;;;;2.35;1.25;;;5.90;99.90;;;;;;5033101;28;20045;-77
2021/05/06 02:13:53;;;;;;;2.67;1.23;;;5.90;99.90;;;;;;5032269;28;20099;-77
2021/05/06 02:16:36;;;;;;;3.20;1.40;;;5.90;99.90;;;;;;5034592;28;20411;-76
2021/05/06 02:19:04;;;;;;;2.92;1.15;;;6.00;99.90;;;;;;5049515;28;20132;-76
2021/05/06 02:21:32;;;;;;;1.63;1.00;;;6.00;99.90;;;;;;5049087;28;20042;-78
2021/05/06 02:24:05;;;;;;;1.63;1.00;;;6.00;99.90;;;;;;5049225;28;20495;-77
2021/05/06 02:26:31;;;;;;;3.28;1.38;;;6.00;99.90;;;;;;5032634;28;20046;-77
2021/05/06 02:28:59;;;;;;;4.43;1.17;;;6.00;99.90;;;;;;5032723;28;20048;-77
2021/05/06 02:31:27;;;;;;;3.30;1.20;;;6.00;99.90;;;;;;5032199;28;20105;-78
2021/05/06 02:33:54;;;;;;;4.45;1.30;;;6.00;99.90;;;;;;5049070;28;20460;-77
2021/05/06 02:36:25;;;;;;;3.17;1.13;;;6.00;99.90;;;;;;5048377;28;20127;-76
2021/05/06 02:38:51;;;;;;;2.33;1.42;;;6.10;99.90;;;;;;5049035;28;20436;-78
2021/05/06 02:41:22;;;;;;;1.80;1.20;;;6.10;99.90;;;;;;5048688;28;20048;-78
2021/05/06 02:43:49;;;;;;;3.83;1.67;;;6.10;99.90;;;;;;5015803;28;20104;-76
2021/05/06 02:46:20;;;;;;;3.95;1.52;;;6.10;99.90;;;;;;5048874;28;20064;-78
2021/05/06 02:48:51;;;;;;;2.50;1.10;;;6.10;99.90;;;;;;5048577;28;20448;-77
2021/05/06 02:51:18;;;;;;;2.28;1.25;;;6.10;99.90;;;;;;5048985;28;20061;-76
2021/05/06 02:53:51;;;;;;;3.45;1.65;;;6.10;99.90;;;;;;5033242;28;20120;-77
2021/05/06 02:56:38;;;;;;;4.65;1.65;;;6.10;99.90;;;;;;5049060;28;20091;-77
2021/05/06 02:59:30;;;;;;;1.45;1.00;;;6.10;99.90;;;;;;5048897;28;20471;-77
2021/05/06 03:04:47;;;;;;;4.88;1.48;;;6.10;99.90;;;;;;5048267;28;20038;-77
2021/05/06 03:07:17;;;;;;;1.85;1.13;;;6.10;99.90;;;;;;5033560;28;20154;-78
2021/05/06 03:09:57;;;;;;;3.65;1.25;;;6.20;99.90;;;;;;5031919;28;20136;-77
2021/05/06 03:12:39;;;;;;;3.70;1.60;;;6.10;99.90;;;;;;5048486;28;20037;-77
2021/05/06 03:23:27;;;;;;;4.60;1.70;;;6.20;99.90;;;;;;5048640;28;20144;-77
2021/05/06 03:25:58;;;;;;;3.55;2.55;;;6.20;99.90;;;;;;5049783;28;20038;-78
2021/05/06 03:28:35;;;;;;;6.95;3.67;;;6.20;99.90;;;;;;5052228;28;20389;-77
2021/05/06 03:44:44;;;;;;;5.55;4.03;;;6.20;99.90;;;;;;5037226;28;20124;-77
2021/05/06 04:38:52;;;;;;;3.75;2.90;;;6.20;99.90;;;;;;5050554;28;20084;-76
2021/05/06 04:55:10;;;;;;;3.55;1.77;;;6.30;99.90;;;;;;5050211;28;20048;-77
2021/05/06 05:06:01;;;;;;;4.30;1.85;;;6.40;99.90;;;;;;5014565;28;20538;-79
2021/05/06 05:08:37;;;;;;;2.97;2.05;;;6.40;99.90;;;;;;5049458;28;20396;-76
2021/05/06 05:11:24;;;;;;;3.13;1.60;;;6.50;99.90;;;;;;5050332;28;20099;-77
2021/05/06 05:14:30;;;;;;;4.20;1.77;;;6.40;99.90;;;;;;5049312;28;20495;-77
2021/05/06 05:25:12;;;;;;;2.40;1.90;;;6.70;99.90;;;;;;5051668;28;20139;-79
2021/05/06 05:27:39;;;;;;;3.30;2.03;;;6.70;99.90;;;;;;5035222;28;20041;-76
2021/05/06 05:30:06;;;;;;;2.50;1.42;;;6.70;99.90;;;;;;5035626;28;20071;-77
2021/05/06 05:32:38;;;;;;;3.03;1.52;;;6.80;99.90;;;;;;5051841;28;20039;-76
2021/05/06 05:35:17;;;;;;;2.00;1.45;;;6.90;99.90;;;;;;5052254;28;20594;-76
2021/05/06 05:38:00;;;;;;;4.57;2.10;;;7.00;99.90;;;;;;5053587;28;20398;-75
2021/05/06 05:40:40;;;;;;;2.53;1.50;;;7.10;99.90;;;;;;5067501;28;20048;-75
2021/05/06 05:54:36;;;;;;;9.93;1.90;;;7.40;99.90;;;;;;5072227;28;20127;-76
2021/05/06 05:57:09;;;;;;;3.85;1.50;;;7.50;99.90;;;;;;5071257;28;20139;-76
2021/05/06 05:59:40;;;;;;;2.38;1.48;;;7.60;99.90;;;;;;5052315;28;20041;-75
2021/05/06 06:02:11;;;;;;;5.20;1.90;;;7.60;99.90;;;;;;5051802;28;20047;-76
2021/05/06 06:04:38;;;;;;;2.83;1.40;;;7.60;99.90;;;;;;5023643;28;20051;-76
2021/05/06 06:07:04;;;;;;;2.92;1.60;;;7.60;99.90;;;;;;5049571;28;20124;-76
2021/05/06 06:09:35;;;;;;;4.10;1.67;;;7.70;99.90;;;;;;5049268;28;20045;-76
2021/05/06 06:12:01;;;;;;;6.95;2.78;;;7.80;99.90;;;;;;5049721;28;20049;-76
2021/05/06 06:14:57;;;;;;;4.20;1.90;;;7.80;99.90;;;;;;5033523;28;20047;-75
2021/05/06 06:17:32;;;;;;;4.82;1.75;;;7.90;99.90;;;;;;5033703;28;20041;-76
2021/05/06 06:20:04;;;;;;;5.30;1.65;;;7.90;99.90;;;;;;5049185;28;20037;-75
2021/05/06 06:22:35;;;;;;;3.03;1.50;;;7.90;99.90;;;;;;5049373;28;20045;-76
2021/05/06 06:25:07;;;;;;;3.00;1.60;;;8.00;99.90;;;;;;5033090;28;20047;-75
2021/05/06 06:27:33;;;;;;;3.35;1.95;;;8.00;99.90;;;;;;5050786;28;20116;-75
2021/05/06 06:30:07;;;;;;;2.85;1.60;;;8.10;99.90;;;;;;5033693;28;20041;-76
2021/05/06 06:32:39;;;;;;;3.20;1.40;;;8.10;99.90;;;;;;5049391;28;20144;-75
2021/05/06 06:35:10;;;;;;;5.43;2.47;;;8.20;99.90;;;;;;5049750;28;20049;-74
2021/05/06 06:37:36;;;;;;;5.53;1.70;;;8.20;99.90;;;;;;5031445;28;20136;-75
2021/05/06 06:40:09;;;;;;;2.92;1.88;;;8.20;99.90;;;;;;5032343;28;20128;-76
2021/05/06 06:42:40;;;;;;;4.35;1.63;;;8.30;99.90;;;;;;5048385;28;20331;-74
2021/05/06 06:45:07;;;;;;;4.93;2.08;;;8.40;99.90;;;;;;5032103;28;20112;-75
2021/05/06 06:47:33;;;;;;;2.95;1.45;;;8.50;99.90;;;;;;5032298;28;20081;-75
2021/05/06 06:50:00;;;;;;;4.57;1.77;;;8.60;99.90;;;;;;5048853;28;20567;-74
2021/05/06 06:52:26;;;;;;;3.13;2.20;;;8.60;99.90;;;;;;5031845;28;20140;-76
2021/05/06 06:54:57;;;;;;;3.40;1.45;;;8.60;99.90;;;;;;5048502;28;20047;-75
2021/05/06 06:57:29;;;;;;;6.25;1.50;;;8.50;99.90;;;;;;5032767;28;20132;-75
2021/05/06 06:59:55;;;;;;;4.28;1.77;;;8.50;99.90;;;;;;5048637;28;20068;-75
2021/05/06 07:02:21;;;;;;;4.38;2.25;;;8.60;99.90;;;;;;5031394;28;20733;-75
2021/05/06 07:04:47;;;;;;;4.00;1.27;;;8.60;99.90;;;;;;5028299;28;20141;-75
2021/05/06 07:07:19;;;;;;;3.65;1.52;;;8.70;99.90;;;;;;5045425;28;20045;-75
2021/05/06 07:09:45;;;;;;;3.70;1.52;;;8.60;99.90;;;;;;5045382;28;20522;-75
2021/05/06 07:12:16;;;;;;;4.43;1.98;;;8.60;99.90;;;;;;5029465;28;20037;-75
2021/05/06 07:14:48;;;;;;;4.93;2.35;;;8.60;99.90;;;;;;5047323;28;20126;-75
2021/05/06 07:17:14;;;;;;;6.07;2.35;;;8.60;99.90;;;;;;5048378;28;20080;-75
2021/05/06 07:19:40;;;;;;;5.80;1.55;;;8.60;99.90;;;;;;5047850;28;20697;-75
2021/05/06 07:22:11;;;;;;;2.83;1.42;;;8.60;99.90;;;;;;5048137;28;20119;-75
2021/05/06 07:24:38;;;;;;;4.15;1.55;;;8.50;99.90;;;;;;5030509;28;20049;-76
2021/05/06 07:27:05;;;;;;;3.15;1.58;;;8.60;99.90;;;;;;5048862;28;20123;-76
2021/05/06 07:29:32;;;;;;;5.80;1.67;;;8.60;99.90;;;;;;5032148;28;20072;-74
2021/05/06 07:32:03;;;;;;;4.65;2.08;;;8.60;99.90;;;;;;5047888;28;20049;-74
2021/05/06 07:34:29;;;;;;;4.93;1.77;;;8.70;99.90;;;;;;5046993;28;20061;-75
2021/05/06 07:36:56;;;;;;;3.38;1.50;;;8.80;99.90;;;;;;5031124;28;20044;-76
2021/05/06 07:39:22;;;;;;;3.15;1.23;;;8.80;99.90;;;;;;5031181;28;20486;-76
2021/05/06 07:41:48;;;;;;;6.38;1.63;;;8.90;99.90;;;;;;5047738;28;20075;-76
2021/05/06 07:44:15;;;;;;;4.45;1.65;;;9.00;99.90;;;;;;5047085;28;20068;-75
2021/05/06 07:46:46;;;;;;;6.85;1.40;;;9.00;99.90;;;;;;5048164;28;20411;-75
2021/05/06 07:49:12;;;;;;;4.72;1.38;;;9.00;99.90;;;;;;5031356;28;20110;-74
2021/05/06 07:51:38;;;;;;;5.15;1.42;;;9.10;99.90;;;;;;5031566;28;20056;-75
2021/05/06 07:54:06;;;;;;;6.45;2.28;;;9.20;99.90;;;;;;5030381;28;20121;-76
2021/05/06 07:56:37;;;;;;;3.83;1.65;;;9.20;99.90;;;;;;5048340;28;20481;-76
2021/05/06 07:59:05;;;;;;;5.38;1.60;;;9.30;99.90;;;;;;5047103;28;20239;-75
2021/05/06 08:01:31;;;;;;;4.38;1.55;;;9.30;99.90;;;;;;5031378;28;20147;-76
2021/05/06 08:04:02;;;;;;;7.85;2.05;;;9.50;99.90;;;;;;5031021;28;20052;-76
2021/05/06 08:06:29;;;;;;;4.50;1.38;;;9.60;99.90;;;;;;5030692;28;20049;-75
2021/05/06 08:08:55;;;;;;;6.90;2.45;;;9.70;99.90;;;;;;5048689;28;20125;-76
2021/05/06 08:11:26;;;;;;;6.32;1.35;;;9.70;99.90;;;;;;5046696;28;20044;-76
2021/05/06 08:13:53;;;;;;;4.65;1.70;;;9.80;99.90;;;;;;5050245;28;20036;-76
2021/05/06 08:16:19;;;;;;;5.10;1.50;;;10.00;99.90;;;;;;5034264;28;20088;-75
2021/05/06 08:18:45;;;;;;;4.13;1.40;;;10.10;99.90;;;;;;5050744;28;20124;-75
2021/05/06 08:21:17;;;;;;;4.40;1.55;;;10.20;99.90;;;;;;5034757;28;20044;-76
2021/05/06 08:23:48;;;;;;;3.88;2.03;;;10.30;99.90;;;;;;5049854;28;20143;-74
2021/05/06 08:26:19;;;;;;;5.68;2.20;;;10.40;99.90;;;;;;5050864;28;20427;-76
2021/05/06 08:28:45;;;;;;;5.75;1.70;;;10.40;99.90;;;;;;5033875;28;20139;-76
2021/05/06 08:31:17;;;;;;;3.35;1.40;;;10.40;99.90;;;;;;5034523;28;20037;-75
2021/05/06 08:33:48;;;;;;;3.28;1.40;;;10.50;99.90;;;;;;5049730;28;20060;-76
2021/05/06 08:36:19;;;;;;;3.35;1.67;;;10.60;99.90;;;;;;5050214;28;20044;-76
2021/05/06 08:38:51;;;;;;;6.55;1.75;;;10.60;99.90;;;;;;5034848;28;20045;-76
2021/05/06 08:41:19;;;;;;;2.70;1.63;;;10.60;99.90;;;;;;5049630;28;20346;-75
2021/05/06 08:43:57;;;;;;;7.63;1.42;;;10.50;99.90;;;;;;5034136;28;20048;-75
2021/05/06 08:46:34;;;;;;;3.60;1.70;;;10.60;99.90;;;;;;5052416;28;20040;-75
2021/05/06 08:49:03;;;;;;;5.65;1.73;;;10.70;99.90;;;;;;5051391;28;20048;-75
2021/05/06 08:51:30;;;;;;;4.45;1.50;;;10.70;99.90;;;;;;5049967;28;20083;-75
2021/05/06 08:54:01;;;;;;;3.20;1.30;;;10.70;99.90;;;;;;5049770;28;20480;-75
2021/05/06 08:56:27;;;;;;;7.38;1.85;;;10.60;99.90;;;;;;5034147;28;20049;-76
2021/05/06 08:58:59;;;;;;;2.92;1.30;;;10.60;99.90;;;;;;5034785;28;20087;-75
2021/05/06 09:01:30;;;;;;;4.70;1.80;;;10.70;99.90;;;;;;5050090;28;20063;-75
2021/05/06 09:03:56;;;;;;;7.18;1.90;;;10.80;99.90;;;;;;5046324;28;20246;-76
2021/05/06 09:06:27;;;;;;;3.72;1.60;;;10.80;99.90;;;;;;5034149;28;20384;-75
2021/05/06 09:08:58;;;;;;;2.58;1.40;;;10.80;99.90;;;;;;5032738;28;20496;-75
2021/05/06 09:11:33;;;;;;;1.67;1.23;;;10.80;99.90;;;;;;5049856;28;20116;-75
2021/05/06 09:14:07;;;;;;;6.38;1.40;;;10.80;99.90;;;;;;5051181;28;20148;-76
2021/05/06 09:16:41;;;;;;;5.28;1.33;;;10.90;99.90;;;;;;5050406;28;20108;-75
2021/05/06 09:19:16;;;;;;;3.85;1.52;;;11.00;99.90;;;;;;5033827;28;20045;-75
2021/05/06 09:21:45;;;;;;;5.35;1.50;;;11.00;99.90;;;;;;5050262;28;20116;-75
2021/05/06 09:24:22;;;;;;;4.18;1.85;;;11.00;99.90;;;;;;5032984;28;20140;-75
2021/05/06 09:26:58;;;;;;;3.92;1.33;;;11.00;99.90;;;;;;5050320;28;20061;-75
2021/05/06 09:29:35;;;;;;;5.47;1.30;;;11.10;99.90;;;;;;5050143;28;20120;-75
2021/05/06 09:32:19;;;;;;;3.50;1.20;;;11.10;99.90;;;;;;5033296;28;20143;-75
2021/05/06 09:34:55;;;;;;;3.58;1.30;;;11.20;99.90;;;;;;5048020;28;20037;-75
2021/05/06 09:37:23;;;;;;;4.53;2.13;;;11.20;99.90;;;;;;5049969;28;20095;-75
2021/05/06 09:40:00;;;;;;;6.55;1.80;;;11.20;99.90;;;;;;5034211;28;20071;-75
2021/05/06 09:42:41;;;;;;;4.57;1.60;;;11.10;99.90;;;;;;5033211;28;20148;-75
2021/05/06 09:45:24;;;;;;;6.82;1.83;;;11.00;99.40;;;;;;5049187;28;20148;-74
2021/05/06 09:48:13;;;;;;;9.43;1.50;;;10.90;99.80;;;;;;5049755;28;20551;-75
2021/05/06 09:50:47;;;;;;;3.40;1.80;;;10.90;99.90;;;;;;5056676;28;20037;-75
2021/05/06 09:53:23;;;;;;;3.65;1.20;;;10.90;99.90;;;;;;5069510;28;20037;-75
2021/05/06 09:55:59;;;;;;;6.68;1.70;;;10.80;99.80;;;;;;5070894;28;20136;-75
2021/05/06 09:58:32;;;;;;;2.78;1.15;;;10.90;99.90;;;;;;5070767;28;20051;-75
2021/05/06 10:01:11;;;;;;;3.55;1.60;;;10.90;99.90;;;;;;5069161;28;20048;-74
2021/05/06 10:03:37;;;;;;;7.10;1.92;;;10.90;99.90;;;;;;5069276;28;20076;-75
2021/05/06 10:06:15;;;;;;;3.40;1.33;;;10.90;99.90;;;;;;5052352;28;20055;-75
2021/05/06 10:08:47;;;;;;;4.57;1.40;;;10.90;99.90;;;;;;5052135;28;20471;-74
2021/05/06 10:11:15;;;;;;;2.55;1.42;;;10.80;98.90;;;;;;5051379;28;20040;-74
2021/05/06 10:13:43;;;;;;;2.45;1.23;;;10.80;99.90;;;;;;5040869;28;20663;-74
2021/05/06 10:16:11;;;;;;;2.50;1.10;;;10.90;99.90;;;;;;5047538;28;20063;-74
2021/05/06 10:18:46;;;;;;;3.03;1.45;;;10.90;99.90;;;;;;5056204;28;20044;-74
2021/05/06 10:21:20;;;;;;;2.28;1.27;;;10.80;99.90;;;;;;5067793;28;20053;-75
2021/05/06 10:23:53;;;;;;;1.88;1.30;;;10.80;99.90;;;;;;5051389;28;20546;-74
2021/05/06 10:26:23;;;;;;;3.55;1.73;;;10.70;99.90;;;;;;5066816;28;20462;-75
2021/05/06 10:28:51;;;;;;;3.85;1.60;;;10.80;99.90;;;;;;5030724;28;20079;-75
2021/05/06 10:31:23;;;;;;;2.50;1.30;;;10.70;99.90;;;;;;5031630;28;20045;-75
2021/05/06 10:33:55;;;;;;;3.40;1.40;;;10.70;99.90;;;;;;5047055;28;20037;-74
2021/05/06 10:36:26;;;;;;;6.50;1.50;;;10.70;99.90;;;;;;5046678;28;20049;-75
2021/05/06 10:38:53;;;;;;;3.28;1.33;;;10.60;99.90;;;;;;5027063;28;20139;-76
2021/05/06 10:41:29;;;;;;;7.30;1.92;;;10.60;99.90;;;;;;5012273;28;20562;-75
2021/05/06 10:44:00;;;;;;;6.32;1.67;;;10.50;99.90;;;;;;5048314;28;20128;-75
2021/05/06 10:49:31;;;;;;;7.30;1.40;;;10.40;99.90;;;;;;5048625;28;20077;-75
2021/05/06 10:52:05;;;;;;;2.67;1.70;;;10.40;99.90;;;;;;5049449;28;20144;-75
2021/05/06 10:54:40;;;;;;;3.60;1.58;;;10.40;99.90;;;;;;5049295;28;20041;-75
2021/05/06 10:57:16;;;;;;;5.10;1.52;;;10.20;99.90;;;;;;5049753;28;20131;-74
2021/05/06 10:59:44;;;;;;;4.80;1.50;;;10.10;99.90;;;;;;5032523;28;20055;-74
2021/05/06 11:02:38;;;;;;;2.65;1.10;;;9.90;99.90;;;;;;5033363;28;20045;-74
2021/05/06 11:05:15;;;;;;;1.55;1.08;;;9.90;99.90;;;;;;5048712;28;20454;-75
2021/05/06 11:07:42;;;;;;;2.40;1.60;;;9.90;99.90;;;;;;5049130;28;20052;-75
2021/05/06 11:10:09;;;;;;;2.40;1.40;;;9.70;99.90;;;;;;5049247;28;20578;-75
2021/05/06 11:12:55;;;;;;;3.47;1.40;;;9.60;99.90;;;;;;5049045;28;20052;-75
2021/05/06 11:15:28;;;;;;;3.72;2.08;;;9.60;99.90;;;;;;5033189;28;20049;-75
2021/05/06 11:18:01;;;;;;;4.28;1.55;;;9.50;99.90;;;;;;5049292;28;20041;-76
2021/05/06 11:20:32;;;;;;;3.10;1.20;;;9.40;99.90;;;;;;5050742;28;20466;-75
2021/05/06 11:23:00;;;;;;;3.10;1.60;;;9.40;99.90;;;;;;5037082;28;20139;-75
2021/05/06 11:25:38;;;;;;;4.15;1.55;;;9.30;99.90;;;;;;5069464;28;20040;-76
2021/05/06 11:28:15;;;;;;;4.15;1.60;;;9.30;99.90;;;;;;5052817;28;20032;-75
2021/05/06 11:30:48;;;;;;;3.38;1.80;;;9.20;99.90;;;;;;5046153;28;20617;-76
2021/05/06 11:33:17;;;;;;;3.38;1.75;;;9.20;99.90;;;;;;5048259;28;20044;-75
2021/05/06 11:35:59;;;;;;;3.22;1.48;;;9.20;99.90;;;;;;5033366;28;20150;-75
2021/05/06 11:38:36;;;;;;;2.33;1.42;;;9.30;99.90;;;;;;5050606;28;20045;-75
2021/05/06 11:41:10;;;;;;;2.47;1.60;;;9.20;99.90;;;;;;5048834;28;20076;-75
2021/05/06 11:43:45;;;;;;;2.10;1.55;;;9.20;99.90;;;;;;5032325;28;20092;-75
2021/05/06 11:46:26;;;;;;;2.72;1.67;;;9.20;99.90;;;;;;5033142;28;20075;-75
2021/05/06 11:49:03;;;;;;;3.53;1.83;;;9.20;99.90;;;;;;5036486;28;20148;-75
2021/05/06 11:51:38;;;;;;;2.88;1.58;;;9.20;99.90;;;;;;5052481;28;20064;-76
2021/05/06 11:54:09;;;;;;;6.82;2.10;;;9.20;99.90;;;;;;5052170;28;20064;-75
2021/05/06 11:57:02;;;;;;;3.25;1.70;;;9.20;99.90;;;;;;5052706;28;20052;-76
2021/05/06 11:59:33;;;;;;;6.95;1.77;;;9.20;99.90;;;;;;5052071;28;20140;-75
2021/05/06 12:02:07;;;;;;;6.68;2.30;;;9.20;99.90;;;;;;5054191;28;20091;-76
2021/05/06 12:04:35;;;;;;;3.47;1.60;;;9.20;99.90;;;;;;5035189;28;20795;-75
2021/05/06 12:07:20;;;;;;;4.88;2.17;;;9.10;99.90;;;;;;5052402;28;20049;-75
2021/05/06 12:09:51;;;;;;;3.05;1.83;;;9.20;99.90;;;;;;5052099;28;20047;-76
2021/05/06 12:12:25;;;;;;;5.00;1.90;;;9.20;99.90;;;;;;5035759;28;20119;-76
2021/05/06 12:14:58;;;;;;;3.75;1.90;;;9.10;99.90;;;;;;5035590;28;20392;-75
2021/05/06 12:17:29;;;;;;;5.32;1.77;;;9.10;99.90;;;;;;5030626;28;20042;-76
2021/05/06 12:20:00;;;;;;;2.95;2.10;;;9.10;99.90;;;;;;5016610;28;20124;-75
2021/05/06 12:22:27;;;;;;;4.63;1.95;;;9.20;99.90;;;;;;5048496;28;20135;-76
2021/05/06 12:24:54;;;;;;;3.58;2.50;;;9.30;99.90;;;;;;5022190;28;20045;-76
2021/05/06 12:27:23;;;;;;;5.68;2.03;;;9.20;99.90;;;;;;5033856;28;20145;-76
2021/05/06 12:29:59;;;;;;;3.75;2.25;;;9.20;99.90;;;;;;5050438;28;20135;-76
2021/05/06 12:32:27;;;;;;;5.90;2.53;;;9.10;99.90;;;;;;5051706;28;20124;-75
2021/05/06 12:34:59;;;;;;;5.15;2.55;;;9.10;99.90;;;;;;5052582;28;20399;-77
2021/05/06 12:37:32;;;;;;;3.20;2.53;;;9.00;99.90;;;;;;5050090;28;20060;-77
2021/05/06 12:40:13;;;;;;;5.47;2.40;;;9.00;99.90;;;;;;5051041;28;20068;-76
2021/05/06 12:42:45;;;;;;;5.03;2.65;;;9.00;99.90;;;;;;5050769;28;20041;-76
2021/05/06 12:45:16;;;;;;;4.43;2.33;;;8.90;99.90;;;;;;5050331;28;20535;-76
2021/05/06 12:47:49;;;;;;;5.63;2.38;;;8.90;99.90;;;;;;5050939;28;20427;-77
2021/05/06 12:50:20;;;;;;;4.32;2.10;;;8.90;99.90;;;;;;5034740;28;20139;-76
2021/05/06 12:52:53;;;;;;;6.95;2.55;;;8.80;99.90;;;;;;5051823;28;20055;-76
2021/05/06 12:55:28;;;;;;;5.10;2.65;;;8.90;99.90;;;;;;5035255;28;20518;-75
2021/05/06 12:58:07;;;;;;;3.13;2.80;;;8.90;99.90;;;;;;5052232;28;20124;-76
2021/05/06 13:00:40;;;;;;;5.47;2.30;;;8.90;99.90;;;;;;5051974;28;20525;-76
2021/05/06 13:03:09;;;;;;;4.78;2.20;;;8.90;99.90;;;;;;5034685;28;20044;-75
2021/05/06 13:05:55;;;;;;;4.70;2.20;;;8.90;99.90;;;;;;5035341;28;20463;-76
2021/05/06 13:08:56;;;;;;;10.65;3.20;;;9.00;99.90;;;;;;5051773;28;20503;-77
2021/05/06 13:11:28;;;;;;;3.35;2.47;;;9.10;99.90;;;;;;5030512;28;20506;-75
2021/05/06 13:14:04;;;;;;;5.60;2.80;;;9.10;99.90;;;;;;5051416;28;20037;-76
2021/05/06 13:16:41;;;;;;;3.75;2.47;;;9.20;99.90;;;;;;5033948;28;20049;-75
2021/05/06 13:19:14;;;;;;;4.57;3.40;;;9.20;99.90;;;;;;5034316;28;20057;-76
2021/05/06 13:21:52;;;;;;;6.20;2.20;;;9.20;99.90;;;;;;5033832;28;20076;-76
2021/05/06 13:24:38;;;;;;;6.63;3.92;;;9.20;99.90;;;;;;5050440;28;20080;-76
2021/05/06 13:27:23;;;;;;;3.60;2.67;;;9.30;99.90;;;;;;5050298;28;20487;-75
2021/05/06 13:29:56;;;;;;;4.78;2.92;;;9.20;99.90;;;;;;5029634;28;20044;-75
2021/05/06 13:32:42;;;;;;;6.55;3.80;;;9.20;99.90;;;;;;5049747;28;20037;-75
2021/05/06 13:35:17;;;;;;;5.07;2.80;;;9.20;99.90;;;;;;5050143;28;20041;-77
2021/05/06 13:37:47;;;;;;;5.40;3.17;;;9.10;99.90;;;;;;5034034;28;20041;-75
2021/05/06 13:40:18;;;;;;;5.95;3.30;;;9.00;99.90;;;;;;5050281;28;20143;-75
2021/05/06 13:42:44;;;;;;;7.43;4.00;;;9.00;99.90;;;;;;5033020;28;20091;-76
2021/05/06 13:45:11;;;;;;;4.43;2.85;;;8.90;99.90;;;;;;5030443;28;20045;-76
2021/05/06 13:47:47;;;;;;;6.07;2.97;;;8.90;99.90;;;;;;5046917;28;20065;-76
2021/05/06 13:50:18;;;;;;;9.60;5.22;;;8.80;99.90;;;;;;5047533;28;20075;-75
2021/05/06 13:52:45;;;;;;;3.85;2.95;;;8.70;99.90;;;;;;5047862;28;20113;-76
2021/05/06 13:55:16;;;;;;;4.60;3.05;;;8.70;99.90;;;;;;5047641;28;20045;-76
2021/05/06 13:57:47;;;;;;;5.57;2.60;;;8.60;99.90;;;;;;5047096;28;20047;-76
2021/05/06 14:00:19;;;;;;;6.28;2.80;;;8.60;99.90;;;;;;5047617;28;20038;-75
2021/05/06 14:02:45;;;;;;;5.47;2.72;;;8.60;99.90;;;;;;5030861;28;20130;-76
2021/05/06 14:05:17;;;;;;;3.40;2.53;;;8.60;99.90;;;;;;5047565;28;20048;-74
2021/05/06 14:07:48;;;;;;;2.90;2.45;;;8.50;99.90;;;;;;5046918;28;20041;-76
2021/05/06 14:10:14;;;;;;;3.70;2.35;;;8.50;99.90;;;;;;5046702;28;20500;-76
2021/05/06 14:12:40;;;;;;;2.75;1.98;;;8.50;99.90;;;;;;5039404;28;20049;-76
2021/05/06 14:15:07;;;;;;;3.28;1.90;;;8.40;99.90;;;;;;5050710;28;20140;-76
2021/05/06 14:17:38;;;;;;;4.22;2.50;;;8.30;99.90;;;;;;5035339;28;20040;-76
2021/05/06 14:20:10;;;;;;;5.93;2.95;;;8.20;99.90;;;;;;5034750;28;20060;-76
2021/05/06 14:22:41;;;;;;;4.68;2.30;;;8.20;99.90;;;;;;5050333;28;20068;-75
2021/05/06 14:25:08;;;;;;;4.15;2.20;;;8.30;99.90;;;;;;5050263;28;20098;-75
2021/05/06 14:27:35;;;;;;;3.30;2.70;;;8.20;99.90;;;;;;5034281;28;20045;-76
2021/05/06 14:30:01;;;;;;;4.18;2.90;;;8.20;99.90;;;;;;5034204;28;20139;-75
2021/05/06 14:32:27;;;;;;;3.40;2.08;;;8.20;99.90;;;;;;5034213;28;20135;-76
2021/05/06 14:34:58;;;;;;;3.92;1.98;;;8.10;99.90;;;;;;5034535;28;20048;-74
2021/05/06 14:37:30;;;;;;;4.63;2.72;;;8.10;99.90;;;;;;5050560;28;20052;-76
2021/05/06 14:40:02;;;;;;;6.60;3.00;;;8.10;99.90;;;;;;5051714;28;20037;-74
2021/05/06 14:42:34;;;;;;;4.30;2.77;;;8.10;99.90;;;;;;5034572;28;20067;-75
2021/05/06 14:45:08;;;;;;;3.08;2.10;;;8.00;99.90;;;;;;5034315;28;20045;-75
2021/05/06 14:47:38;;;;;;;4.13;2.28;;;7.90;99.90;;;;;;5051985;28;20124;-76
2021/05/06 14:50:10;;;;;;;3.78;2.05;;;7.90;99.90;;;;;;5050876;28;20041;-76
2021/05/06 14:52:42;;;;;;;6.80;3.25;;;7.90;99.90;;;;;;5049471;28;20037;-74
2021/05/06 14:55:10;;;;;;;2.97;2.35;;;7.90;99.90;;;;;;5033845;28;20472;-76
2021/05/06 14:57:38;;;;;;;2.50;2.28;;;7.80;99.90;;;;;;5050082;28;20578;-76
2021/05/06 15:00:10;;;;;;;3.58;2.35;;;7.90;99.90;;;;;;5034712;28;20044;-76
2021/05/06 15:02:36;;;;;;;4.63;2.58;;;7.90;99.90;;;;;;5033674;28;20072;-76
2021/05/06 15:05:08;;;;;;;7.50;3.30;;;7.90;99.90;;;;;;5034228;28;20135;-76
2021/05/06 15:07:35;;;;;;;4.55;2.70;;;7.80;99.90;;;;;;5033464;28;20072;-76
2021/05/06 15:10:07;;;;;;;2.80;2.50;;;7.80;99.90;;;;;;5034199;28;20140;-76
2021/05/06 15:12:42;;;;;;;2.55;2.17;;;7.90;99.90;;;;;;5050412;28;20041;-75
2021/05/06 15:15:08;;;;;;;3.58;2.60;;;8.00;99.90;;;;;;5050251;28;20496;-76
2021/05/06 15:17:40;;;;;;;3.45;2.78;;;7.90;99.90;;;;;;5049458;28;20040;-76
2021/05/06 15:20:07;;;;;;;3.00;2.70;;;7.90;99.90;;;;;;5033501;28;20080;-76
2021/05/06 15:22:38;;;;;;;4.82;3.00;;;7.90;99.90;;;;;;5038178;28;20135;-76
2021/05/06 15:25:12;;;;;;;2.90;2.60;;;7.90;99.90;;;;;;5055257;28;20041;-74
2021/05/06 15:27:41;;;;;;;3.95;2.95;;;7.90;99.90;;;;;;5037429;28;20124;-76
2021/05/06 15:30:16;;;;;;;3.50;2.83;;;7.90;99.90;;;;;;5053971;28;20037;-76
2021/05/06 15:32:42;;;;;;;4.70;3.85;;;8.00;99.90;;;;;;5053826;28;20135;-75
2021/05/06 15:35:09;;;;;;;7.63;4.22;;;8.00;99.90;;;;;;5036934;28;20094;-76
2021/05/06 15:37:36;;;;;;;7.68;6.10;;;8.20;99.90;;;;;;5053837;28;20140;-76
2021/05/06 15:40:10;;;;;;;4.28;3.88;;;8.30;99.90;;;;;;5052711;28;20048;-76
2021/05/06 15:42:41;;;;;;;5.90;4.85;;;8.40;99.90;;;;;;5060611;28;20049;-76
2021/05/06 15:45:09;;;;;;;4.65;3.38;;;8.40;99.90;;;;;;5067570;28;20136;-76
2021/05/06 15:47:41;;;;;;;6.20;5.60;;;8.40;99.90;;;;;;5067601;28;20059;-76
2021/05/06 15:50:13;;;;;;;5.63;4.97;;;8.40;99.90;;;;;;5073703;28;20068;-76
2021/05/06 15:52:40;;;;;;;4.82;3.60;;;8.30;99.90;;;;;;5073769;28;20143;-77
2021/05/06 15:55:08;;;;;;;3.05;2.33;;;8.30;99.90;;;;;;5056867;28;20094;-77
2021/05/06 15:57:37;;;;;;;3.13;2.70;;;8.20;99.90;;;;;;5073851;28;20072;-76
2021/05/06 16:00:05;;;;;;;3.30;2.63;;;8.20;99.90;;;;;;5073623;28;20503;-77
2021/05/06 16:02:40;;;;;;;4.93;3.20;;;8.40;99.90;;;;;;5073294;28;20454;-75
2021/05/06 16:05:13;;;;;;;4.40;2.85;;;8.60;99.90;;;;;;5054711;28;20055;-75
2021/05/06 16:07:45;;;;;;;3.83;2.63;;;8.50;99.90;;;;;;5052622;28;20059;-75
2021/05/06 16:10:12;;;;;;;3.45;2.90;;;8.40;99.90;;;;;;5047378;28;20522;-76
2021/05/06 16:12:43;;;;;;;4.25;3.08;;;8.30;99.90;;;;;;5038115;28;20127;-76
2021/05/06 16:15:10;;;;;;;4.88;3.25;;;8.20;99.90;;;;;;5051112;28;20064;-75
2021/05/06 16:17:36;;;;;;;5.85;4.15;;;8.10;99.90;;;;;;5048290;28;20492;-75
2021/05/06 16:22:51;;;;;;;4.88;3.55;;;7.90;99.90;;;;;;5044969;28;20041;-75
2021/05/06 16:25:18;;;;;;;5.03;3.47;;;7.90;99.90;;;;;;5040929;28;20124;-75
2021/05/06 16:27:45;;;;;;;5.32;3.30;;;7.90;99.90;;;;;;5040558;28;20080;-75
2021/05/06 16:30:13;;;;;;;5.30;3.70;;;7.90;99.90;;;;;;5040743;28;20654;-76
2021/05/06 16:32:45;;;;;;;4.00;3.40;;;7.90;99.90;;;;;;5040750;28;20042;-75